createdAt,value
2022-08-07T00:00:42.344Z,99147.06
2022-08-07T00:03:47.384Z,99154.09
2022-08-07T00:06:51.808Z,99148.19
2022-08-07T00:10:18.747Z,99145.50
2022-08-07T00:13:23.881Z,99142.78
2022-08-07T00:16:30.109Z,99146.72
2022-08-07T00:20:01.568Z,99143.28
2022-08-07T00:22:57.428Z,99143.00
2022-08-07T00:26:18.573Z,99139.47
2022-08-07T00:29:31.460Z,99131.63
2022-08-07T00:32:35.566Z,99136.50
2022-08-07T00:35:39.174Z,99137.09
2022-08-07T00:38:42.782Z,99128.41
2022-08-07T00:42:01.781Z,99134.88
2022-08-07T00:45:16.078Z,99136.16
2022-08-07T00:48:19.768Z,99137.06
2022-08-07T00:51:57.071Z,99136.78
2022-08-07T00:54:57.644Z,99138.31
2022-08-07T00:58:03.920Z,99139.94
2022-08-07T01:01:08.408Z,99134.88
2022-08-07T01:04:11.788Z,99139.44
2022-08-07T01:07:29.838Z,99141.03
2022-08-07T01:10:34.981Z,99139.47
2022-08-07T01:13:40.560Z,99141.03
2022-08-07T01:17:00.266Z,99146.63
2022-08-07T01:20:10.493Z,99142.97
2022-08-07T01:23:34.666Z,99139.81
2022-08-07T01:26:43.888Z,99134.94
2022-08-07T01:29:56.508Z,99133.88
2022-08-07T01:33:00.590Z,99129.59
2022-08-07T01:36:09.943Z,99134.00
2022-08-07T01:39:18.286Z,99132.59
2022-08-07T01:42:39.847Z,99126.19
2022-08-07T01:45:55.004Z,99132.25
2022-08-07T01:49:02.819Z,99125.78
2022-08-07T01:52:09.354Z,99126.56
2022-08-07T01:55:22.251Z,99131.78
2022-08-07T01:58:34.154Z,99129.22
2022-08-07T02:01:59.781Z,99129.69
2022-08-07T02:05:16.205Z,99128.53
2022-08-07T02:08:42.416Z,99127.66
2022-08-07T02:12:03.554Z,99125.81
2022-08-07T02:15:15.092Z,99131.00
2022-08-07T02:18:22.263Z,99123.31
2022-08-07T02:21:55.831Z,99119.38
2022-08-07T02:24:55.761Z,99123.31
2022-08-07T02:28:03.552Z,99124.34
2022-08-07T02:31:28.413Z,99123.59
2022-08-07T02:34:35.893Z,99130.06
2022-08-07T02:37:54.596Z,99125.75
2022-08-07T02:40:59.640Z,99124.88
2022-08-07T02:44:06.364Z,99122.44
2022-08-07T02:47:19.225Z,99124.06
2022-08-07T02:50:26.754Z,99126.41
2022-08-07T02:53:38.711Z,99132.38
2022-08-07T02:56:47.835Z,99126.22
2022-08-07T03:00:00.856Z,99127.31
2022-08-07T03:03:13.327Z,99131.31
2022-08-07T03:06:26.300Z,99126.22
2022-08-07T03:09:44.572Z,99129.38
2022-08-07T03:12:50.236Z,99134.31
2022-08-07T03:15:58.458Z,99132.03
2022-08-07T03:19:06.333Z,99130.44
2022-08-07T03:22:18.990Z,99129.56
2022-08-07T03:25:25.785Z,99131.56
2022-08-07T03:28:39.614Z,99135.28
2022-08-07T03:31:50.046Z,99136.84
2022-08-07T03:35:00.936Z,99140.63
2022-08-07T03:38:31.123Z,99139.97
2022-08-07T03:41:42.371Z,99143.53
2022-08-07T03:44:53.645Z,99147.34
2022-08-07T03:48:04.180Z,99142.91
2022-08-07T03:51:15.371Z,99144.09
2022-08-07T03:54:35.097Z,99149.75
2022-08-07T03:58:34.194Z,99139.66
2022-08-07T04:01:17.326Z,99144.91
2022-08-07T04:04:25.402Z,99147.25
2022-08-07T04:07:35.895Z,99150.13
2022-08-07T04:10:54.289Z,99152.97
2022-08-07T04:14:38.599Z,99151.00
2022-08-07T04:18:31.335Z,99154.78
2022-08-07T04:21:02.218Z,99156.81
2022-08-07T04:24:10.481Z,99150.91
2022-08-07T04:27:44.381Z,99154.44
2022-08-07T04:30:57.362Z,99159.03
2022-08-07T04:34:16.629Z,99161.22
2022-08-07T04:37:24.279Z,99153.09
2022-08-07T04:40:32.764Z,99159.06
2022-08-07T04:44:11.784Z,99157.09
2022-08-07T04:47:56.794Z,99168.94
2022-08-07T04:50:40.707Z,99174.50
2022-08-07T04:54:06.697Z,99173.69
2022-08-07T04:58:12.325Z,99176.13
2022-08-07T05:00:56.037Z,99182.31
2022-08-07T05:04:17.811Z,99179.63
2022-08-07T05:07:36.843Z,99182.25
2022-08-07T05:10:48.702Z,99174.38
2022-08-07T05:14:53.189Z,99181.41
2022-08-07T05:18:00.928Z,99190.44
2022-08-07T05:20:49.239Z,99197.56
2022-08-07T05:23:59.345Z,99196.97
2022-08-07T05:27:06.715Z,99194.91
2022-08-07T05:30:32.654Z,99191.53
2022-08-07T05:33:40.062Z,99195.00
2022-08-07T05:36:56.919Z,99204.22
2022-08-07T05:40:18.675Z,99205.72
2022-08-07T05:43:49.883Z,99206.94
2022-08-07T05:46:51.271Z,99204.84
2022-08-07T05:49:59.961Z,99206.75
2022-08-07T05:53:05.469Z,99202.94
2022-08-07T05:56:30.393Z,99209.59
2022-08-07T05:59:55.741Z,99228.88
2022-08-07T06:03:07.025Z,99216.13
2022-08-07T06:06:12.661Z,99227.59
2022-08-07T06:10:04.000Z,99223.97
2022-08-07T06:12:48.627Z,99228.78
2022-08-07T06:15:56.858Z,99230.03
2022-08-07T06:19:06.406Z,99230.03
2022-08-07T06:22:22.553Z,99227.47
2022-08-07T06:25:41.913Z,99226.22
2022-08-07T06:29:01.163Z,99230.25
2022-08-07T06:32:09.865Z,99225.44
2022-08-07T06:35:17.985Z,99232.56
2022-08-07T06:38:22.602Z,99231.78
2022-08-07T06:42:02.409Z,99234.19
2022-08-07T06:45:17.980Z,99234.06
2022-08-07T06:48:29.668Z,99233.75
2022-08-07T06:51:49.367Z,99229.66
2022-08-07T06:55:32.878Z,99230.63
2022-08-07T06:58:24.625Z,99231.88
2022-08-07T07:01:43.847Z,99228.53
2022-08-07T07:04:55.911Z,99225.22
2022-08-07T07:08:06.465Z,99230.13
2022-08-07T07:11:13.791Z,99240.34
2022-08-07T07:14:40.598Z,99237.72
2022-08-07T07:17:52.322Z,99241.31
2022-08-07T07:21:03.947Z,99238.59
2022-08-07T07:24:12.549Z,99241.66
2022-08-07T07:27:18.504Z,99242.63
2022-08-07T07:30:32.529Z,99244.66
2022-08-07T07:33:44.795Z,99251.03
2022-08-07T07:37:14.349Z,99246.97
2022-08-07T07:40:26.292Z,99247.19
2022-08-07T07:43:48.232Z,99244.91
2022-08-07T07:47:14.267Z,99246.22
2022-08-07T07:50:33.100Z,99253.22
2022-08-07T07:53:51.745Z,99249.19
2022-08-07T07:56:58.343Z,99256.72
2022-08-07T08:00:09.183Z,99255.00
2022-08-07T08:04:10.231Z,99253.38
2022-08-07T08:06:51.145Z,99252.94
2022-08-07T08:10:05.477Z,99249.47
2022-08-07T08:13:15.214Z,99243.34
2022-08-07T08:16:25.257Z,99246.38
2022-08-07T08:20:18.573Z,99245.00
2022-08-07T08:23:14.294Z,99244.88
2022-08-07T08:26:38.219Z,99248.28
2022-08-07T08:29:54.139Z,99246.25
2022-08-07T08:33:03.020Z,99246.34
2022-08-07T08:36:08.746Z,99252.75
2022-08-07T08:39:13.068Z,99244.59
2022-08-07T08:42:27.102Z,99242.00
2022-08-07T08:45:42.074Z,99244.63
2022-08-07T08:49:12.465Z,99231.75
2022-08-07T08:52:23.467Z,99228.00
2022-08-07T08:55:55.238Z,99230.34
2022-08-07T08:59:13.584Z,99230.81
2022-08-07T09:02:34.655Z,99220.31
2022-08-07T09:05:47.973Z,99228.34
2022-08-07T09:09:00.264Z,99227.22
2022-08-07T09:12:31.361Z,99221.41
2022-08-07T09:16:24.186Z,99214.94
2022-08-07T09:19:53.079Z,99214.78
2022-08-07T09:24:31.969Z,99207.28
2022-08-07T09:26:34.797Z,99213.66
2022-08-07T09:30:03.265Z,99216.19
2022-08-07T09:33:40.934Z,99211.84
2022-08-07T09:36:57.053Z,99212.25
2022-08-07T09:40:07.057Z,99202.72
2022-08-07T09:44:03.666Z,99203.53
2022-08-07T09:47:49.518Z,99195.94
2022-08-07T09:50:40.971Z,99198.66
2022-08-07T09:53:59.279Z,99196.38
2022-08-07T09:57:49.433Z,99188.97
2022-08-07T10:01:14.991Z,99181.94
2022-08-07T10:05:00.683Z,99178.53
2022-08-07T10:08:39.043Z,99177.28
2022-08-07T10:12:00.301Z,99175.69
2022-08-07T10:15:23.497Z,99178.28
2022-08-07T10:18:56.835Z,99156.53
2022-08-07T10:22:24.929Z,99150.75
2022-08-07T10:25:53.098Z,99162.00
2022-08-07T10:29:09.641Z,99158.25
2022-08-07T10:32:52.647Z,99170.00
2022-08-07T10:40:08.883Z,99145.03
2022-08-07T10:43:34.430Z,99160.47
2022-08-07T10:46:48.057Z,99143.13
2022-08-07T10:53:52.303Z,99144.34
2022-08-07T10:57:11.343Z,99140.84
2022-08-07T11:00:39.372Z,99148.69
2022-08-07T11:03:55.193Z,99142.84
2022-08-07T11:07:24.809Z,99143.94
2022-08-07T11:10:40.764Z,99145.22
2022-08-07T11:14:46.519Z,99137.34
2022-08-07T11:17:42.599Z,99127.81
2022-08-07T11:20:50.969Z,99128.38
2022-08-07T11:23:59.593Z,99133.66
2022-08-07T11:27:13.608Z,99126.53
2022-08-07T11:30:39.135Z,99133.06
2022-08-07T11:33:58.610Z,99118.59
2022-08-07T11:37:24.451Z,99130.13
2022-08-07T11:40:50.484Z,99112.16
2022-08-07T11:44:12.175Z,99112.72
2022-08-07T11:47:38.811Z,99106.53
2022-08-07T11:51:10.618Z,99108.50
2022-08-07T11:54:46.326Z,99103.59
2022-08-07T11:58:13.240Z,99097.25
2022-08-07T12:01:59.982Z,99091.41
2022-08-07T12:05:28.951Z,99103.88
2022-08-07T12:08:42.548Z,99107.16
2022-08-07T12:12:10.013Z,99096.28
2022-08-07T12:15:46.106Z,99100.66
2022-08-07T12:18:47.520Z,99104.41
2022-08-07T12:22:38.781Z,99104.28
2022-08-07T12:26:03.022Z,99099.94
2022-08-07T12:29:37.234Z,99102.88
2022-08-07T12:32:49.223Z,99097.34
2022-08-07T12:35:57.797Z,99099.63
2022-08-07T12:39:09.435Z,99093.59
2022-08-07T12:42:32.399Z,99094.59
2022-08-07T12:45:52.305Z,99097.56
2022-08-07T12:49:10.265Z,99089.78
2022-08-07T12:52:46.329Z,99099.09
2022-08-07T12:56:03.670Z,99088.31
2022-08-07T12:59:20.644Z,99087.56
2022-08-07T13:02:44.040Z,99087.41
2022-08-07T13:06:22.044Z,99088.66
2022-08-07T13:10:21.619Z,99070.09
2022-08-07T13:13:47.150Z,99086.41
2022-08-07T13:17:06.350Z,99090.56
2022-08-07T13:20:17.154Z,99097.88
2022-08-07T13:24:04.356Z,99086.13
2022-08-07T13:27:05.755Z,99091.47
2022-08-07T13:30:19.353Z,99094.56
2022-08-07T13:34:30.354Z,99105.00
2022-08-07T13:37:20.177Z,99108.31
2022-08-07T13:40:42.173Z,99115.81
2022-08-07T13:43:52.577Z,99111.44
2022-08-07T13:47:00.465Z,99111.09
2022-08-07T13:50:33.799Z,99117.00
2022-08-07T13:53:49.978Z,99114.72
2022-08-07T13:56:59.901Z,99116.41
2022-08-07T14:00:06.505Z,99116.84
2022-08-07T14:03:41.275Z,99106.69
2022-08-07T14:06:46.232Z,99116.28
2022-08-07T14:10:14.897Z,99129.13
2022-08-07T14:13:33.161Z,99149.69
2022-08-07T14:16:41.485Z,99150.91
2022-08-07T14:20:40.178Z,99156.00
2022-08-07T14:23:59.066Z,99164.22
2022-08-07T14:26:52.375Z,99146.25
2022-08-07T14:30:10.031Z,99148.34
2022-08-07T14:33:17.708Z,99155.34
2022-08-07T14:36:28.034Z,99152.03
2022-08-07T14:40:17.170Z,99144.16
2022-08-07T14:43:55.925Z,99161.00
2022-08-07T14:46:33.251Z,99166.63
2022-08-07T14:49:57.884Z,99165.56
2022-08-07T14:56:32.092Z,99182.50
2022-08-07T15:00:04.724Z,99182.94
2022-08-07T15:03:18.641Z,99183.44
2022-08-07T15:06:25.993Z,99182.88
2022-08-07T15:09:57.475Z,99180.94
2022-08-07T15:13:01.162Z,99184.19
2022-08-07T15:16:14.639Z,99187.28
2022-08-07T15:20:31.011Z,99178.03
2022-08-07T15:22:53.823Z,99178.72
2022-08-07T15:25:59.962Z,99168.53
2022-08-07T15:30:04.602Z,99176.09
2022-08-07T15:32:39.064Z,99172.22
2022-08-07T15:39:12.391Z,99180.69
2022-08-07T15:42:46.849Z,99172.94
2022-08-07T15:46:00.070Z,99173.28
2022-08-07T15:49:12.619Z,99167.22
2022-08-07T15:52:38.195Z,99175.31
2022-08-07T15:55:54.024Z,99183.63
2022-08-07T15:59:16.608Z,99177.84
2022-08-07T16:02:29.018Z,99179.88
2022-08-07T16:05:36.121Z,99180.53
2022-08-07T16:08:45.498Z,99174.47
2022-08-07T16:12:13.437Z,99176.34
2022-08-07T16:15:57.978Z,99171.69
2022-08-07T16:19:42.949Z,99176.50
2022-08-07T16:23:05.515Z,99186.56
2022-08-07T16:26:30.595Z,99191.00
2022-08-07T16:30:10.722Z,99199.81
2022-08-07T16:34:02.861Z,99201.13
2022-08-07T16:37:02.798Z,99181.75
2022-08-07T16:41:12.961Z,99195.03
2022-08-07T16:45:04.165Z,99184.19
2022-08-07T16:48:34.457Z,99207.97
2022-08-07T16:52:50.676Z,99239.59
2022-08-07T16:55:47.397Z,99247.44
2022-08-07T16:59:11.012Z,99265.63
2022-08-07T17:02:52.287Z,99269.75
2022-08-07T17:06:29.362Z,99267.63
2022-08-07T17:10:06.764Z,99273.84
2022-08-07T17:13:18.133Z,99273.09
2022-08-07T17:16:27.157Z,99259.06
2022-08-07T17:20:02.825Z,99260.94
2022-08-07T17:23:11.584Z,99263.69
2022-08-07T17:26:22.531Z,99254.22
2022-08-07T17:30:16.122Z,99255.06
2022-08-07T17:34:09.021Z,99252.63
2022-08-07T17:36:57.753Z,99246.47
2022-08-07T17:40:10.856Z,99248.81
2022-08-07T17:43:19.022Z,99260.91
2022-08-07T17:46:52.589Z,99264.66
2022-08-07T17:50:00.767Z,99260.31
2022-08-07T17:53:09.544Z,99261.44
2022-08-07T17:56:35.902Z,99273.81
2022-08-07T17:59:50.467Z,99271.72
2022-08-07T18:02:57.915Z,99277.06
2022-08-07T18:06:09.501Z,99281.91
2022-08-07T18:10:04.458Z,99285.69
2022-08-07T18:13:09.577Z,99282.75
2022-08-07T18:16:32.792Z,99280.88
2022-08-07T18:21:09.769Z,99283.31
2022-08-07T18:23:42.536Z,99281.44
2022-08-07T18:27:11.751Z,99276.81
2022-08-07T18:30:32.456Z,99286.78
2022-08-07T18:34:37.663Z,99278.19
2022-08-07T18:38:57.384Z,99299.69
2022-08-07T18:41:20.798Z,99305.03
2022-08-07T18:44:45.936Z,99308.53
2022-08-07T18:48:03.620Z,99306.41
2022-08-07T18:52:38.656Z,99313.09
2022-08-07T18:54:55.306Z,99327.59
2022-08-07T18:58:32.117Z,99337.56
2022-08-07T19:02:20.014Z,99340.50
2022-08-07T19:05:15.853Z,99349.94
2022-08-07T19:08:30.170Z,99355.84
2022-08-07T19:12:08.999Z,99357.19
2022-08-07T19:16:03.129Z,99355.81
2022-08-07T19:18:55.659Z,99365.69
2022-08-07T19:22:11.179Z,99357.38
2022-08-07T19:26:22.644Z,99367.53
2022-08-07T19:30:53.494Z,99363.84
2022-08-07T19:32:18.641Z,99360.34
2022-08-07T19:35:34.344Z,99355.25
2022-08-07T19:38:52.690Z,99366.81
2022-08-07T19:42:05.755Z,99375.66
2022-08-07T19:46:07.627Z,99373.47
2022-08-07T19:48:53.514Z,99373.22
2022-08-07T19:52:00.560Z,99372.44
2022-08-07T19:55:05.014Z,99373.72
2022-08-07T19:58:18.358Z,99379.03
2022-08-07T20:01:52.694Z,99383.97
2022-08-07T20:04:56.336Z,99376.56
2022-08-07T20:08:03.325Z,99383.63
2022-08-07T20:11:10.878Z,99391.75
2022-08-07T20:14:31.629Z,99394.63
2022-08-07T20:17:38.776Z,99381.28
2022-08-07T20:20:43.528Z,99382.06
2022-08-07T20:23:54.070Z,99381.88
2022-08-07T20:27:02.358Z,99388.97
2022-08-07T20:30:11.180Z,99384.22
2022-08-07T20:33:36.959Z,99377.63
2022-08-07T20:36:44.042Z,99382.72
2022-08-07T20:40:04.047Z,99386.47
2022-08-07T20:43:19.349Z,99385.50
2022-08-07T20:46:32.348Z,99385.16
2022-08-07T20:50:00.497Z,99391.59
2022-08-07T20:53:05.748Z,99394.19
2022-08-07T20:56:11.106Z,99401.09
2022-08-07T21:00:04.181Z,99402.28
2022-08-07T21:02:59.885Z,99405.97
2022-08-07T21:06:21.702Z,99408.66
2022-08-07T21:09:52.057Z,99409.63
2022-08-07T21:13:00.539Z,99408.97
2022-08-07T21:16:06.277Z,99406.91
2022-08-07T21:19:14.040Z,99406.44
2022-08-07T21:22:19.412Z,99409.50
2022-08-07T21:25:30.988Z,99398.88
2022-08-07T21:28:51.280Z,99400.91
2022-08-07T21:32:47.090Z,99395.81
2022-08-07T21:36:06.484Z,99394.84
2022-08-07T21:39:47.529Z,99396.44
2022-08-07T21:42:46.449Z,99393.84
2022-08-07T21:46:10.834Z,99390.06
2022-08-07T21:49:28.184Z,99400.34
2022-08-07T21:52:45.560Z,99390.94
2022-08-07T21:55:57.514Z,99402.22
2022-08-07T21:59:05.534Z,99391.25
2022-08-07T22:02:20.400Z,99392.84
2022-08-07T22:05:45.984Z,99396.09
2022-08-07T22:08:57.076Z,99396.63
2022-08-07T22:12:12.580Z,99398.09
2022-08-07T22:16:43.304Z,99397.56
2022-08-07T22:18:55.968Z,99400.75
2022-08-07T22:22:29.153Z,99398.38
2022-08-07T22:25:42.250Z,99408.66
2022-08-07T22:28:53.126Z,99411.38
2022-08-07T22:32:05.883Z,99405.03
2022-08-07T22:35:11.202Z,99412.97
2022-08-07T22:38:29.623Z,99407.38
2022-08-07T22:42:03.118Z,99404.94
2022-08-07T22:45:10.910Z,99411.34
2022-08-07T22:48:55.493Z,99407.25
2022-08-07T22:52:37.555Z,99406.38
2022-08-07T22:55:52.855Z,99407.84
2022-08-07T22:59:41.544Z,99410.94
2022-08-07T23:03:21.538Z,99406.69
2022-08-07T23:06:43.713Z,99397.28
2022-08-07T23:10:37.326Z,99392.75
2022-08-07T23:13:48.912Z,99397.28
2022-08-07T23:17:36.955Z,99394.16
2022-08-07T23:21:05.725Z,99402.03
2022-08-07T23:24:29.603Z,99396.75
2022-08-07T23:28:22.013Z,99399.59
2022-08-07T23:34:22.320Z,99400.03
2022-08-07T23:35:16.761Z,99401.13
2022-08-07T23:38:36.209Z,99399.63
2022-08-07T23:42:04.247Z,99397.59
2022-08-07T23:45:33.132Z,99399.31
2022-08-07T23:49:16.676Z,99397.09
2022-08-07T23:53:11.785Z,99405.13
2022-08-07T23:56:04.064Z,99400.22
